Time;durP1;ratioP1;P1;durP2;ratioP2;P2;SDS_P1;SDS_P2;PMS_P1;PMS_P2;Temp;Humidity;BMP_temperature;BMP_pressure;BME280_temperature;BME280_humidity;BME280_pressure;Samples;Min_cycle;Max_cycle;Signal;HPM_P1;HPM_P2
2023/11/05 00:01:07;;;;;;;9.40;5.30;;;;;;;17.10;88.32;98219.23;107826;1259;61957;-70
2023/11/05 00:04:04;;;;;;;10.00;4.80;;;;;;;17.06;88.70;98218.55;107861;1258;60286;-68
2023/11/05 00:07:05;;;;;;;12.70;5.70;;;;;;;17.01;88.92;98209.59;107899;1257;72149;-69
2023/11/05 00:09:58;;;;;;;15.90;6.30;;;;;;;16.96;89.43;98216.34;107686;1258;72683;-69
2023/11/05 00:12:49;;;;;;;13.10;6.00;;;;;;;16.93;89.94;98215.52;107836;1257;70201;-69
2023/11/05 00:15:44;;;;;;;14.30;6.70;;;;;;;16.89;90.36;98206.13;107902;1259;60420;-69
2023/11/05 00:18:35;;;;;;;12.10;5.70;;;;;;;16.86;90.78;98187.19;108011;1256;60298;-69
2023/11/05 00:21:36;;;;;;;16.90;6.50;;;;;;;16.84;91.20;98174.82;107853;1257;73410;-70
2023/11/05 00:24:35;;;;;;;14.70;7.30;;;;;;;16.79;91.62;98177.75;107934;1257;72849;-70
2023/11/05 00:27:27;;;;;;;15.30;6.30;;;;;;;16.77;92.15;98177.16;107823;1260;72696;-69
2023/11/05 00:30:19;;;;;;;12.60;6.10;;;;;;;16.76;92.77;98182.54;107890;1255;61748;-69
2023/11/05 00:36:54;;;;;;;11.50;5.80;;;;;;;16.74;93.91;98162.61;107963;1253;72603;-71
2023/11/05 00:39:40;;;;;;;11.50;5.20;;;;;;;16.73;94.08;98165.58;108070;1259;71766;-69
2023/11/05 00:42:20;;;;;;;13.40;5.60;;;;;;;16.72;94.48;98164.16;108157;1254;73311;-69
2023/11/05 00:44:53;;;;;;;11.50;5.20;;;;;;;16.61;94.82;98171.42;108161;1254;60425;-70
2023/11/05 00:47:45;;;;;;;14.60;5.10;;;;;;;16.56;95.72;98172.25;108083;1254;60417;-70
2023/11/05 00:50:45;;;;;;;12.80;4.80;;;;;;;16.63;95.43;98179.33;108125;1254;73032;-70
2023/11/05 00:53:33;;;;;;;10.80;4.40;;;;;;;16.61;95.61;98179.76;108071;1254;72744;-69
2023/11/05 00:56:01;;;;;;;11.60;3.90;;;;;;;16.60;96.01;98175.88;108047;1256;71055;-70
2023/11/05 00:58:28;;;;;;;13.50;4.60;;;;;;;16.59;96.19;98167.08;108026;1256;60402;-70
2023/11/05 01:00:56;;;;;;;8.30;3.40;;;;;;;16.58;96.47;98158.45;107963;1254;60337;-70
2023/11/05 01:03:24;;;;;;;10.90;3.70;;;;;;;16.58;96.59;98152.58;108190;1254;73850;-68
2023/11/05 01:05:52;;;;;;;8.40;3.00;;;;;;;16.59;96.75;98147.45;108089;1254;72902;-70
2023/11/05 01:08:20;;;;;;;7.50;2.70;;;;;;;16.59;96.81;98143.38;108177;1254;72772;-72
2023/11/05 01:10:47;;;;;;;9.40;2.80;;;;;;;16.59;96.72;98135.98;108096;1257;61744;-70
2023/11/05 01:13:15;;;;;;;10.50;3.00;;;;;;;16.60;96.69;98128.30;108167;1254;60331;-70
2023/11/05 01:15:43;;;;;;;8.50;2.30;;;;;;;16.61;96.55;98130.68;108007;1257;72618;-71
2023/11/05 01:18:11;;;;;;;5.70;2.10;;;;;;;16.58;96.53;98130.11;107873;1257;72679;-72
2023/11/05 01:20:39;;;;;;;6.20;2.00;;;;;;;16.50;96.93;98130.41;108022;1256;71378;-70
2023/11/05 01:23:06;;;;;;;6.60;2.60;;;;;;;16.52;96.76;98130.27;107926;1260;60570;-71
2023/11/05 01:25:34;;;;;;;8.70;2.80;;;;;;;16.46;97.04;98130.27;108000;1254;60893;-69
2023/11/05 01:28:02;;;;;;;8.80;3.10;;;;;;;16.39;97.19;98130.42;108090;1254;73869;-69
2023/11/05 01:30:29;;;;;;;10.50;3.70;;;;;;;16.36;97.61;98126.66;107911;1258;72909;-69
2023/11/05 01:32:58;;;;;;;6.80;3.20;;;;;;;16.34;97.62;98119.61;108051;1254;71224;-69
2023/11/05 01:35:25;;;;;;;7.00;3.10;;;;;;;16.30;97.69;98122.84;108060;1254;60433;-70
2023/11/05 01:37:53;;;;;;;8.60;4.10;;;;;;;16.24;98.47;98125.95;108069;1254;60335;-70
2023/11/05 01:40:20;;;;;;;6.50;3.40;;;;;;;16.25;98.60;98124.89;108129;1254;72676;-72
2023/11/05 01:42:55;;;;;;;7.50;3.50;;;;;;;16.23;98.93;98118.08;108073;1254;73130;-69
2023/11/05 01:45:23;;;;;;;7.20;3.40;;;;;;;16.19;99.17;98118.02;108335;1257;72510;-69
2023/11/05 01:47:51;;;;;;;7.10;3.20;;;;;;;16.15;99.59;98125.56;108048;1257;60465;-68
2023/11/05 01:50:18;;;;;;;3.90;1.50;;;;;;;16.11;100.00;98215.48;108039;1254;59852;-73
2023/11/05 01:52:48;;;;;;;3.40;0.70;;;;;;;15.81;93.39;98254.31;107887;1254;72641;-69
2023/11/05 01:55:16;;;;;;;1.70;0.50;;;;;;;15.18;85.85;98230.63;107908;1254;74122;-73
2023/11/05 01:57:43;;;;;;;0.80;0.30;;;;;;;14.58;83.78;98236.89;107938;1254;71498;-70
2023/11/05 02:00:12;;;;;;;0.50;0.20;;;;;;;14.07;83.30;98227.96;108012;1254;60464;-72
2023/11/05 02:02:40;;;;;;;0.90;0.20;;;;;;;13.66;83.81;98209.08;107970;1254;60061;-70
2023/11/05 02:05:09;;;;;;;1.70;0.30;;;;;;;13.34;84.75;98223.55;107986;1254;74014;-70
2023/11/05 02:07:36;;;;;;;1.10;0.60;;;;;;;13.08;85.46;98237.52;108026;1254;72795;-72
2023/11/05 02:10:05;;;;;;;0.80;0.20;;;;;;;12.89;86.27;98259.80;108085;1254;72470;-71
2023/11/05 02:12:32;;;;;;;1.60;0.60;;;;;;;12.75;87.14;98276.36;108091;1257;60380;-71
2023/11/05 02:15:00;;;;;;;0.40;0.20;;;;;;;12.64;88.11;98300.09;108115;1254;60347;-71
2023/11/05 02:17:28;;;;;;;1.00;0.20;;;;;;;12.54;89.20;98317.69;108094;1254;73857;-69
2023/11/05 02:19:55;;;;;;;0.30;0.20;;;;;;;12.52;90.04;98330.83;108137;1254;71690;-69
2023/11/05 02:22:23;;;;;;;3.30;0.30;;;;;;;12.47;90.35;98343.17;108093;1254;72592;-71
2023/11/05 02:24:51;;;;;;;0.20;0.20;;;;;;;12.42;90.84;98341.48;107992;1254;61655;-70
2023/11/05 02:27:18;;;;;;;0.40;0.10;;;;;;;12.37;91.18;98333.27;108045;1254;60309;-69
2023/11/05 02:29:47;;;;;;;1.10;0.10;;;;;;;12.33;91.53;98338.73;108109;1254;72644;-70
2023/11/05 02:32:15;;;;;;;0.50;0.30;;;;;;;12.27;91.98;98348.22;107944;1254;72756;-69
2023/11/05 02:34:43;;;;;;;1.10;0.40;;;;;;;12.24;92.40;98347.94;108109;1254;71146;-70
2023/11/05 02:37:11;;;;;;;0.60;0.20;;;;;;;12.25;92.66;98350.50;108062;1257;60382;-69
2023/11/05 02:39:39;;;;;;;0.20;0.20;;;;;;;12.23;93.09;98359.27;108145;1254;60453;-70
2023/11/05 02:42:06;;;;;;;0.70;0.20;;;;;;;12.22;93.11;98362.38;108041;1254;73917;-71
2023/11/05 02:44:34;;;;;;;1.50;0.20;;;;;;;12.21;93.31;98376.11;108191;1254;72703;-70
2023/11/05 02:47:02;;;;;;;0.30;0.20;;;;;;;12.21;93.54;98382.84;108070;1254;72723;-70
2023/11/05 02:49:29;;;;;;;1.40;0.40;;;;;;;12.21;93.65;98387.06;108166;1254;61724;-70
2023/11/05 02:51:57;;;;;;;0.80;0.40;;;;;;;12.20;93.68;98403.84;108073;1254;60399;-69
2023/11/05 02:54:27;;;;;;;0.40;0.20;;;;;;;12.16;93.82;98418.80;107977;1254;72593;-69
2023/11/05 02:56:55;;;;;;;0.30;0.10;;;;;;;12.13;93.95;98431.22;108100;1254;71566;-69
2023/11/05 02:59:25;;;;;;;0.40;0.20;;;;;;;12.09;94.18;98442.30;108139;1256;70730;-69
2023/11/05 03:01:53;;;;;;;1.00;0.30;;;;;;;12.06;94.44;98445.28;107917;1254;61690;-69
2023/11/05 03:04:21;;;;;;;1.10;0.20;;;;;;;12.04;94.88;98452.30;108080;1254;60501;-69
2023/11/05 03:06:52;;;;;;;0.30;0.20;;;;;;;12.01;95.17;98463.14;108081;1254;72543;-70
2023/11/05 03:09:24;;;;;;;0.50;0.20;;;;;;;11.98;95.64;98457.04;108039;1254;72696;-73
2023/11/05 03:11:53;;;;;;;0.20;0.20;;;;;;;11.96;95.94;98464.99;108093;1254;72677;-70
2023/11/05 03:14:20;;;;;;;0.90;0.30;;;;;;;11.94;96.30;98476.46;108086;1254;60683;-70
2023/11/05 03:16:48;;;;;;;1.10;0.30;;;;;;;11.91;96.54;98486.35;108118;1254;60084;-69
2023/11/05 03:19:15;;;;;;;0.80;0.30;;;;;;;11.89;97.02;98499.70;107946;1254;74949;-69
2023/11/05 03:21:43;;;;;;;1.40;0.30;;;;;;;11.87;97.34;98509.91;108133;1254;71644;-70
2023/11/05 03:24:14;;;;;;;1.30;0.20;;;;;;;11.86;97.72;98525.79;108073;1254;72758;-70
2023/11/05 03:26:51;;;;;;;0.50;0.30;;;;;;;11.84;98.14;98553.96;107985;1254;60536;-69
2023/11/05 03:29:23;;;;;;;0.30;0.20;;;;;;;11.82;98.35;98567.98;108337;1255;62111;-69
2023/11/05 03:31:51;;;;;;;1.20;0.20;;;;;;;11.82;98.68;98576.29;108046;1254;72908;-69
2023/11/05 03:34:21;;;;;;;1.20;0.30;;;;;;;11.82;98.78;98598.48;108060;1254;74789;-69
2023/11/05 03:36:50;;;;;;;0.30;0.20;;;;;;;11.81;98.89;98605.29;108116;1254;72633;-69
2023/11/05 03:39:23;;;;;;;0.60;0.40;;;;;;;11.80;98.85;98614.65;108161;1259;61164;-69
2023/11/05 03:41:53;;;;;;;0.40;0.30;;;;;;;11.78;98.71;98632.79;108200;1254;61270;-68
2023/11/05 03:44:26;;;;;;;0.60;0.30;;;;;;;11.77;98.53;98637.14;108294;1254;73396;-70
2023/11/05 03:46:58;;;;;;;0.30;0.30;;;;;;;11.77;98.55;98631.72;108153;1254;71787;-67
2023/11/05 03:49:33;;;;;;;1.20;0.40;;;;;;;11.76;98.17;98642.14;108116;1254;72798;-68
2023/11/05 03:52:13;;;;;;;0.60;0.40;;;;;;;11.76;97.61;98642.14;108044;1254;60991;-69
2023/11/05 03:54:45;;;;;;;0.40;0.30;;;;;;;11.76;97.10;98649.15;108136;1254;61173;-69
2023/11/05 03:57:17;;;;;;;5.70;0.40;;;;;;;11.78;97.01;98651.43;108129;1254;74670;-68
2023/11/05 03:59:56;;;;;;;1.40;0.30;;;;;;;11.78;96.69;98647.92;108110;1254;72634;-68
2023/11/05 04:02:38;;;;;;;1.00;0.40;;;;;;;11.76;96.14;98654.97;108100;1255;72481;-68
2023/11/05 04:05:30;;;;;;;0.90;0.40;;;;;;;11.73;95.01;98670.22;108052;1254;61253;-68
2023/11/05 04:08:18;;;;;;;1.00;0.40;;;;;;;11.72;94.68;98674.45;108100;1254;61134;-67
2023/11/05 04:11:01;;;;;;;0.60;0.40;;;;;;;11.71;94.24;98674.47;108030;1254;73428;-68
2023/11/05 04:13:51;;;;;;;0.90;0.40;;;;;;;11.69;93.62;98682.63;108125;1254;72941;-69
2023/11/05 04:37:31;;;;;;;0.70;0.50;;;;;;;11.44;95.22;98753.70;107899;1256;72679;-68
2023/11/05 04:40:17;;;;;;;1.90;1.00;;;;;;;11.21;96.34;98763.36;107702;1256;61228;-68
2023/11/05 04:42:57;;;;;;;1.20;0.70;;;;;;;11.61;94.47;98758.71;107894;1257;60102;-69
2023/11/05 04:45:46;;;;;;;1.70;0.40;;;;;;;11.73;92.99;98766.59;107785;1257;74787;-68
2023/11/05 04:48:26;;;;;;;0.40;0.30;;;;;;;11.36;94.25;98777.65;107959;1257;72743;-69
2023/11/05 04:51:09;;;;;;;0.40;0.30;;;;;;;11.22;95.83;98790.10;107942;1257;71969;-69
2023/11/05 04:53:37;;;;;;;1.50;0.30;;;;;;;11.33;95.93;98793.98;107953;1257;61717;-70
2023/11/05 04:56:05;;;;;;;0.50;0.40;;;;;;;11.52;95.24;98795.41;108036;1257;61256;-68
2023/11/05 04:58:33;;;;;;;0.80;0.40;;;;;;;11.77;93.28;98790.06;107947;1259;74679;-70
2023/11/05 05:01:00;;;;;;;1.50;0.40;;;;;;;11.77;92.51;98790.38;107916;1257;72116;-70
2023/11/05 05:03:28;;;;;;;0.60;0.30;;;;;;;11.77;92.03;98790.06;107922;1257;73152;-69
2023/11/05 05:05:55;;;;;;;0.70;0.40;;;;;;;11.77;91.66;98796.61;107753;1257;61696;-68
2023/11/05 05:08:23;;;;;;;0.60;0.30;;;;;;;11.76;91.33;98801.27;107882;1257;61604;-69
2023/11/05 05:10:51;;;;;;;0.70;0.40;;;;;;;11.74;90.98;98803.89;107910;1256;73383;-70
2023/11/05 05:13:18;;;;;;;1.50;0.40;;;;;;;11.73;90.70;98806.54;107926;1257;72735;-70
2023/11/05 05:15:46;;;;;;;0.90;0.60;;;;;;;11.71;90.60;98810.50;107985;1257;72512;-69
2023/11/05 05:18:14;;;;;;;0.90;0.40;;;;;;;11.72;90.71;98821.67;107968;1257;61718;-70
2023/11/05 05:20:41;;;;;;;0.70;0.40;;;;;;;11.72;90.53;98823.75;107975;1257;61260;-68
2023/11/05 05:23:09;;;;;;;1.50;0.40;;;;;;;11.71;90.21;98837.46;107899;1257;74686;-70
2023/11/05 05:25:36;;;;;;;0.90;0.50;;;;;;;11.73;90.09;98837.84;107993;1257;72076;-70
2023/11/05 05:28:04;;;;;;;0.60;0.50;;;;;;;11.73;90.05;98840.02;107939;1257;71621;-69
2023/11/05 05:30:32;;;;;;;0.50;0.50;;;;;;;11.76;90.05;98841.77;107872;1259;61672;-69
2023/11/05 05:32:59;;;;;;;1.40;0.60;;;;;;;11.78;89.88;98834.89;107867;1257;60060;-69
2023/11/05 05:35:27;;;;;;;0.60;0.50;;;;;;;11.77;89.43;98835.45;107844;1256;73489;-69
2023/11/05 05:37:55;;;;;;;1.30;0.60;;;;;;;11.64;89.82;98848.33;107880;1255;72706;-69
2023/11/05 05:40:23;;;;;;;1.70;0.60;;;;;;;11.69;90.18;98857.73;107923;1257;72474;-69
2023/11/05 05:42:50;;;;;;;1.30;0.60;;;;;;;11.74;89.21;98855.50;107919;1257;61032;-69
2023/11/05 05:45:18;;;;;;;1.10;0.50;;;;;;;11.74;88.86;98863.00;107895;1257;61138;-69
2023/11/05 05:47:46;;;;;;;1.10;0.70;;;;;;;11.76;88.48;98873.30;107890;1257;74706;-69
2023/11/05 05:50:14;;;;;;;3.10;0.90;;;;;;;11.75;87.89;98873.73;107928;1256;72402;-70
2023/11/05 05:52:41;;;;;;;1.90;0.70;;;;;;;11.76;87.72;98877.14;108122;1257;72763;-70
2023/11/05 05:55:14;;;;;;;1.40;0.90;;;;;;;11.75;87.61;98874.65;108016;1257;61699;-68
2023/11/05 05:57:42;;;;;;;2.10;1.10;;;;;;;11.71;87.26;98873.98;107871;1257;61224;-70
2023/11/05 06:00:11;;;;;;;1.80;1.00;;;;;;;11.68;87.28;98872.99;108209;1257;74696;-69
2023/11/05 06:02:39;;;;;;;2.60;0.90;;;;;;;11.66;87.02;98875.47;107903;1256;73033;-69
2023/11/05 06:05:10;;;;;;;2.80;1.40;;;;;;;11.67;86.95;98885.98;107846;1257;74343;-69
2023/11/05 06:07:38;;;;;;;2.40;1.10;;;;;;;11.69;87.05;98892.38;107863;1256;61196;-69
2023/11/05 06:10:07;;;;;;;3.20;1.10;;;;;;;11.69;86.77;98899.09;107890;1257;61333;-70
2023/11/05 06:12:34;;;;;;;1.50;0.80;;;;;;;11.69;86.79;98898.59;107941;1256;74124;-70
2023/11/05 06:15:04;;;;;;;1.30;0.70;;;;;;;11.69;86.61;98902.02;107891;1256;71585;-70
2023/11/05 06:17:41;;;;;;;1.80;1.00;;;;;;;11.70;86.46;98901.77;107885;1257;71374;-69
2023/11/05 06:20:10;;;;;;;0.90;0.60;;;;;;;11.69;85.79;98909.57;107846;1257;62706;-69
2023/11/05 06:22:38;;;;;;;2.30;0.80;;;;;;;11.67;85.02;98909.61;107978;1255;61270;-68
2023/11/05 06:25:09;;;;;;;0.70;0.40;;;;;;;11.68;84.49;98914.08;107975;1255;73647;-69
2023/11/05 06:27:39;;;;;;;;;;;;;;;11.73;84.35;98917.19;107913;1257;71712;-70
2023/11/05 06:30:09;;;;;;;1.30;0.60;;;;;;;11.80;84.22;98924.70;107907;1256;71505;-69
2023/11/05 06:32:37;;;;;;;1.60;0.70;;;;;;;11.86;83.65;98936.90;107908;1256;61663;-69
2023/11/05 06:35:05;;;;;;;0.80;0.50;;;;;;;11.88;82.84;98940.44;108006;1257;61193;-69
2023/11/05 06:37:33;;;;;;;2.40;0.70;;;;;;;11.90;82.11;98945.05;107939;1256;74755;-72
2023/11/05 06:40:01;;;;;;;1.30;0.70;;;;;;;11.91;81.71;98948.70;107872;1256;72548;-70
2023/11/05 06:42:29;;;;;;;1.60;0.80;;;;;;;11.93;81.52;98956.84;107984;1259;71072;-73
2023/11/05 06:44:56;;;;;;;1.10;0.70;;;;;;;11.98;81.47;98975.89;107969;1257;61145;-70
2023/11/05 06:47:24;;;;;;;2.20;0.90;;;;;;;12.05;81.55;98983.01;108027;1257;61329;-70
2023/11/05 06:49:52;;;;;;;1.60;0.90;;;;;;;12.09;81.62;98985.30;107899;1257;73482;-69
2023/11/05 06:52:19;;;;;;;1.80;0.80;;;;;;;12.12;81.57;98994.65;107882;1256;74760;-71
2023/11/05 06:54:47;;;;;;;2.10;0.70;;;;;;;12.19;81.83;98996.36;107937;1257;71389;-68
2023/11/05 06:57:15;;;;;;;2.00;0.80;;;;;;;12.26;81.96;99000.16;107835;1256;61663;-68
2023/11/05 06:59:43;;;;;;;1.80;0.70;;;;;;;12.32;82.08;99004.81;107892;1257;61106;-69
2023/11/05 07:02:10;;;;;;;0.90;0.60;;;;;;;12.39;82.10;99009.83;107856;1256;74675;-68
2023/11/05 07:04:38;;;;;;;3.30;0.80;;;;;;;12.45;81.61;99009.30;107923;1256;72546;-69
2023/11/05 07:07:06;;;;;;;1.70;0.60;;;;;;;12.52;81.31;99010.25;107967;1257;72721;-69
2023/11/05 07:09:34;;;;;;;1.70;0.70;;;;;;;12.56;80.72;99011.98;108102;1257;61107;-69
2023/11/05 07:12:01;;;;;;;1.00;0.50;;;;;;;12.59;80.17;99011.58;108056;1256;61129;-68
2023/11/05 07:14:29;;;;;;;3.00;0.60;;;;;;;12.63;79.74;99014.63;107907;1256;75311;-69
2023/11/05 07:16:57;;;;;;;3.20;0.80;;;;;;;12.66;79.22;99015.71;107895;1257;72655;-70
2023/11/05 07:19:24;;;;;;;1.20;0.60;;;;;;;12.69;78.58;99017.80;107853;1257;72363;-70
2023/11/05 07:21:52;;;;;;;1.80;0.90;;;;;;;12.74;78.22;99024.41;107824;1257;61822;-69
2023/11/05 07:24:20;;;;;;;1.90;0.70;;;;;;;12.79;77.84;99018.23;107849;1257;61147;-69
2023/11/05 07:26:47;;;;;;;1.60;0.80;;;;;;;12.89;77.67;99016.02;107934;1257;75616;-71
2023/11/05 07:29:16;;;;;;;1.00;0.70;;;;;;;13.01;77.52;99013.23;107991;1257;71842;-70
2023/11/05 07:31:44;;;;;;;2.30;0.70;;;;;;;13.09;76.46;99013.44;107910;1257;72692;-69
2023/11/05 07:34:11;;;;;;;1.70;0.60;;;;;;;13.09;75.20;99015.15;107908;1256;61103;-69
2023/11/05 07:36:39;;;;;;;1.80;0.80;;;;;;;13.03;74.12;99013.33;107934;1256;61157;-69
2023/11/05 07:39:07;;;;;;;3.20;0.70;;;;;;;13.01;74.02;99007.78;107957;1257;74687;-70
2023/11/05 07:41:35;;;;;;;1.00;0.50;;;;;;;13.01;73.97;99002.04;108052;1256;72530;-71
2023/11/05 07:44:03;;;;;;;1.70;0.60;;;;;;;13.06;74.07;99000.44;107883;1260;71746;-69
2023/11/05 07:46:32;;;;;;;1.40;0.70;;;;;;;13.14;74.10;98995.64;107957;1256;61718;-68
2023/11/05 07:49:00;;;;;;;2.10;0.50;;;;;;;13.26;73.80;98986.07;108066;1256;61118;-71
2023/11/05 07:51:27;;;;;;;2.30;0.70;;;;;;;13.33;73.09;98985.17;107820;1257;74873;-69
2023/11/05 07:53:55;;;;;;;1.40;0.60;;;;;;;13.37;72.60;98981.87;107926;1257;71447;-71
2023/11/05 07:56:25;;;;;;;1.60;0.70;;;;;;;13.42;72.16;98979.01;107951;1257;73580;-71
2023/11/05 07:58:54;;;;;;;1.60;0.80;;;;;;;13.51;71.95;98985.93;107879;1259;61105;-70
2023/11/05 08:01:22;;;;;;;1.30;0.70;;;;;;;13.62;71.86;98982.71;107898;1257;61246;-71
2023/11/05 08:03:52;;;;;;;1.60;0.70;;;;;;;13.69;71.17;98992.30;107923;1262;72644;-70
2023/11/05 08:06:20;;;;;;;1.20;0.60;;;;;;;13.69;70.39;99000.14;107805;1262;72721;-70
2023/11/05 08:08:48;;;;;;;1.70;0.80;;;;;;;13.62;69.58;99004.58;107918;1257;71483;-71
2023/11/05 08:11:15;;;;;;;1.00;0.60;;;;;;;13.58;69.67;98999.59;107882;1256;60121;-70
2023/11/05 08:13:43;;;;;;;1.20;0.60;;;;;;;13.64;69.66;99004.98;107908;1256;61353;-69
2023/11/05 08:16:11;;;;;;;1.30;0.70;;;;;;;13.70;69.42;99000.86;107892;1255;73497;-70
2023/11/05 08:18:39;;;;;;;0.80;0.60;;;;;;;13.76;69.13;99003.73;107869;1257;71631;-68
2023/11/05 08:21:10;;;;;;;3.60;0.90;;;;;;;13.79;68.23;99002.95;107886;1257;71121;-69
2023/11/05 08:23:38;;;;;;;1.50;0.60;;;;;;;13.80;68.18;99002.09;107816;1256;62223;-69
2023/11/05 08:26:06;;;;;;;1.80;0.60;;;;;;;13.83;67.73;99003.66;107939;1257;61196;-71
2023/11/05 08:28:38;;;;;;;1.00;0.50;;;;;;;13.86;67.31;99001.70;107888;1256;74752;-69
2023/11/05 08:31:22;;;;;;;0.90;0.40;;;;;;;13.91;67.16;99001.75;107922;1257;72508;-70
2023/11/05 08:34:31;;;;;;;0.80;0.50;;;;;;;13.94;66.63;98994.88;107819;1256;71385;-69
2023/11/05 08:37:00;;;;;;;1.10;0.60;;;;;;;13.96;66.51;98985.88;107773;1257;61691;-69
2023/11/05 08:39:27;;;;;;;1.80;0.70;;;;;;;14.04;66.66;98984.86;107794;1256;61235;-70
2023/11/05 08:41:55;;;;;;;2.20;0.50;;;;;;;14.14;66.17;98978.63;107770;1257;73381;-70
2023/11/05 08:44:23;;;;;;;3.40;0.90;;;;;;;14.23;65.93;98974.40;107763;1257;72991;-70
2023/11/05 08:46:51;;;;;;;1.10;0.60;;;;;;;14.35;65.48;98978.90;107874;1257;72002;-70
2023/11/05 08:49:20;;;;;;;1.70;0.60;;;;;;;14.45;65.07;98983.98;107857;1256;61164;-70
2023/11/05 08:51:47;;;;;;;1.40;0.60;;;;;;;14.50;64.43;98989.67;107897;1256;61369;-70
2023/11/05 08:54:15;;;;;;;1.50;0.60;;;;;;;14.53;64.08;98994.48;107827;1256;74592;-70
2023/11/05 08:56:43;;;;;;;2.00;0.60;;;;;;;14.64;64.02;99000.67;108081;1257;71972;-70
2023/11/05 08:59:10;;;;;;;1.90;0.70;;;;;;;14.71;63.92;99006.21;107626;1257;72766;-68
2023/11/05 09:01:39;;;;;;;1.40;0.60;;;;;;;14.79;63.67;99003.12;108025;1256;61046;-69
2023/11/05 09:04:10;;;;;;;1.90;0.60;;;;;;;14.84;63.31;98997.78;107792;1255;61145;-69
2023/11/05 09:06:37;;;;;;;1.60;0.70;;;;;;;14.92;63.06;98999.83;107932;1256;73698;-71
2023/11/05 09:09:06;;;;;;;1.50;0.60;;;;;;;14.94;62.35;99004.80;107882;1256;72558;-68
2023/11/05 09:11:33;;;;;;;1.20;0.70;;;;;;;14.97;62.50;99005.98;108041;1256;72874;-69
2023/11/05 09:14:01;;;;;;;1.90;0.60;;;;;;;15.06;62.27;99002.81;108164;1257;60435;-69
2023/11/05 09:16:29;;;;;;;1.40;0.80;;;;;;;15.11;61.44;99002.62;107973;1256;61004;-68
2023/11/05 09:18:59;;;;;;;1.40;0.80;;;;;;;15.13;61.07;99003.23;87106;1260;20002834;-69
2023/11/05 09:21:27;;;;;;;1.90;1.00;;;;;;;15.18;61.39;99002.99;107710;1257;59485;-68
2023/11/05 09:23:54;;;;;;;1.90;0.90;;;;;;;15.31;61.32;99003.39;107576;1257;60456;-69
2023/11/05 09:26:23;;;;;;;1.80;0.70;;;;;;;15.41;60.70;99004.88;107679;1256;73267;-69
2023/11/05 09:28:51;;;;;;;2.10;1.00;;;;;;;15.47;60.01;99002.93;107692;1256;61135;-69
2023/11/05 09:31:18;;;;;;;2.60;1.00;;;;;;;15.55;59.88;99006.52;107668;1255;61134;-69
2023/11/05 09:33:46;;;;;;;2.10;0.90;;;;;;;15.57;58.96;99004.67;108233;1257;74813;-68
2023/11/05 09:36:14;;;;;;;2.60;0.90;;;;;;;15.58;58.90;99005.93;107972;1256;74855;-68
2023/11/05 09:38:41;;;;;;;2.10;0.80;;;;;;;15.57;58.62;99001.83;107888;1262;72830;-67
2023/11/05 09:41:09;;;;;;;2.90;0.90;;;;;;;15.60;58.67;99003.39;107597;1259;59424;-67
2023/11/05 09:43:37;;;;;;;0.80;0.70;;;;;;;15.61;58.41;99005.29;107631;1256;61045;-70
2023/11/05 09:46:04;;;;;;;1.50;0.70;;;;;;;15.62;58.31;99004.63;107851;1257;75159;-68
2023/11/05 09:48:32;;;;;;;1.00;0.70;;;;;;;15.70;58.29;99003.88;107823;1257;72836;-69
2023/11/05 09:51:01;;;;;;;1.30;0.70;;;;;;;15.82;58.60;99004.48;107913;1257;71981;-69
2023/11/05 09:53:29;;;;;;;1.10;0.60;;;;;;;15.98;58.82;99003.42;107880;1256;61107;-69
2023/11/05 09:55:57;;;;;;;1.30;0.70;;;;;;;16.13;58.73;98997.58;107836;1256;61262;-69
2023/11/05 09:58:25;;;;;;;2.90;0.80;;;;;;;16.26;58.43;98994.02;107769;1257;74786;-68
2023/11/05 10:00:53;;;;;;;1.30;0.60;;;;;;;16.41;58.30;98997.98;108047;1257;73455;-68
2023/11/05 10:03:21;;;;;;;1.70;0.60;;;;;;;16.52;57.99;98991.35;107700;1257;229601;-69
2023/11/05 10:05:48;;;;;;;0.90;0.60;;;;;;;16.58;57.51;98988.10;107874;1257;61132;-68
2023/11/05 10:08:16;;;;;;;1.10;0.70;;;;;;;16.58;57.15;98983.77;107906;1256;61103;-68
2023/11/05 10:10:44;;;;;;;1.50;0.60;;;;;;;16.53;56.77;98980.20;107795;1257;74640;-70
2023/11/05 10:13:14;;;;;;;0.90;0.50;;;;;;;16.46;56.67;98977.45;107864;1257;72868;-70
2023/11/05 10:15:42;;;;;;;1.00;0.50;;;;;;;16.27;56.88;98974.02;108035;1255;72541;-69
2023/11/05 10:18:17;;;;;;;0.90;0.50;;;;;;;16.24;56.54;98962.79;107843;1257;61831;-69
2023/11/05 10:20:50;;;;;;;2.10;0.60;;;;;;;15.99;57.24;98958.84;107865;1255;61102;-67
2023/11/05 10:23:18;;;;;;;1.00;0.50;;;;;;;16.01;57.46;98956.73;107945;1255;74800;-69
2023/11/05 10:25:47;;;;;;;1.80;0.60;;;;;;;16.41;56.92;98953.65;107877;1257;75152;-68
2023/11/05 10:28:14;;;;;;;1.50;0.60;;;;;;;16.57;56.69;98947.55;107926;1257;71499;-70
2023/11/05 10:30:45;;;;;;;1.60;0.60;;;;;;;16.65;56.22;98938.86;107883;1256;61164;-69
2023/11/05 10:33:13;;;;;;;1.00;0.60;;;;;;;16.76;55.60;98939.31;107785;1256;61062;-69
2023/11/05 10:35:41;;;;;;;0.80;0.50;;;;;;;16.84;55.45;98935.09;107919;1257;74655;-69
2023/11/05 10:38:10;;;;;;;2.90;0.60;;;;;;;16.92;55.55;98933.17;107965;1256;72891;-69
2023/11/05 10:40:38;;;;;;;1.10;0.50;;;;;;;16.92;55.11;98938.57;107821;1257;71188;-69
2023/11/05 10:43:07;;;;;;;1.30;0.50;;;;;;;16.88;54.97;98944.38;107854;1256;61211;-68
2023/11/05 10:45:34;;;;;;;1.30;0.70;;;;;;;16.83;55.17;98948.10;108053;1256;60026;-68
2023/11/05 10:48:02;;;;;;;1.10;0.60;;;;;;;16.88;55.13;98953.41;107981;1256;74779;-68
2023/11/05 10:50:30;;;;;;;1.40;0.60;;;;;;;16.91;55.03;98951.34;107826;1256;73380;-69
2023/11/05 10:52:58;;;;;;;1.70;0.70;;;;;;;16.96;54.78;98944.10;107941;1257;72690;-70
2023/11/05 10:55:37;;;;;;;1.10;0.70;;;;;;;16.97;54.80;98941.27;107845;1257;61359;-70
2023/11/05 10:58:06;;;;;;;2.30;0.70;;;;;;;16.78;54.97;98941.43;107988;1257;61144;-68
2023/11/05 11:01:03;;;;;;;0.80;0.50;;;;;;;16.53;55.57;98943.02;107819;1256;74638;-69
2023/11/05 11:03:30;;;;;;;1.50;0.50;;;;;;;16.79;55.29;98945.50;107950;1256;72755;-69
2023/11/05 11:05:59;;;;;;;0.90;0.60;;;;;;;16.56;55.63;98952.67;107851;1257;71395;-68
2023/11/05 11:08:29;;;;;;;1.30;0.50;;;;;;;16.51;55.96;98949.12;107854;1257;61100;-68
2023/11/05 11:11:07;;;;;;;1.40;0.60;;;;;;;16.50;56.30;98945.86;107911;1255;61256;-70
2023/11/05 11:13:38;;;;;;;1.50;0.50;;;;;;;16.54;56.44;98945.83;107893;1258;75656;-70
2023/11/05 11:16:08;;;;;;;0.90;0.60;;;;;;;16.91;55.57;98933.46;107873;1255;71649;-70
2023/11/05 11:18:36;;;;;;;1.60;0.50;;;;;;;17.14;54.78;98927.15;107918;1255;71533;-69
2023/11/05 11:21:07;;;;;;;0.60;0.50;;;;;;;17.18;54.67;98933.89;107890;1256;61845;-69
2023/11/05 11:23:35;;;;;;;0.90;0.40;;;;;;;17.21;54.46;98934.90;107943;1256;61166;-68
2023/11/05 11:26:06;;;;;;;1.60;0.60;;;;;;;17.27;54.28;98932.00;107827;1256;74702;-68
2023/11/05 11:28:33;;;;;;;1.10;0.50;;;;;;;17.32;54.02;98929.73;107904;1260;72829;-68
2023/11/05 11:31:01;;;;;;;1.10;0.50;;;;;;;17.35;53.78;98933.31;107884;1257;71516;-69
2023/11/05 11:33:29;;;;;;;0.90;0.60;;;;;;;17.36;53.82;98933.41;107865;1260;61173;-69
2023/11/05 11:35:57;;;;;;;1.90;0.70;;;;;;;17.30;53.47;98928.08;107861;1257;60841;-68
2023/11/05 11:38:25;;;;;;;2.10;0.50;;;;;;;17.17;53.60;98924.13;107862;1255;74669;-70
2023/11/05 11:40:53;;;;;;;1.90;0.70;;;;;;;16.66;54.51;98923.19;107977;1256;72502;-67
2023/11/05 11:43:22;;;;;;;1.40;0.60;;;;;;;16.51;55.32;98922.55;107827;1256;72480;-68
2023/11/05 11:45:50;;;;;;;2.40;0.60;;;;;;;16.45;55.58;98922.67;107899;1257;61035;-68
2023/11/05 11:48:24;;;;;;;1.70;0.50;;;;;;;16.43;55.59;98921.67;107972;1257;61074;-70
2023/11/05 11:50:56;;;;;;;1.70;0.60;;;;;;;16.40;55.67;98922.89;107883;1257;73406;-69
2023/11/05 11:53:39;;;;;;;0.80;0.50;;;;;;;16.40;55.91;98921.73;107777;1256;70780;-69
2023/11/05 11:56:07;;;;;;;1.70;0.60;;;;;;;16.36;56.05;98923.38;107923;1257;71491;-69
2023/11/05 11:58:39;;;;;;;1.20;0.50;;;;;;;16.28;55.88;98921.18;107855;1257;59897;-67
2023/11/05 12:01:12;;;;;;;1.10;0.50;;;;;;;16.16;56.04;98917.34;108004;1255;61221;-68
2023/11/05 12:03:40;;;;;;;1.50;0.70;;;;;;;16.06;56.29;98915.09;107867;1256;74741;-69
2023/11/05 12:06:08;;;;;;;2.30;1.30;;;;;;;16.00;56.56;98908.94;107863;1256;71911;-70